createdAt,value
2018-06-25T00:00:14.821Z,0.00
2018-06-25T00:01:14.828Z,0.00
2018-06-25T00:02:14.788Z,0.00
2018-06-25T00:03:14.769Z,0.00
2018-06-25T00:04:14.753Z,0.00
2018-06-25T00:05:14.741Z,0.00
2018-06-25T00:06:14.718Z,0.00
2018-06-25T00:07:14.713Z,0.00
2018-06-25T00:08:14.685Z,0.00
2018-06-25T00:09:14.666Z,0.00
2018-06-25T00:10:14.647Z,0.00
2018-06-25T00:11:14.630Z,0.00
2018-06-25T00:12:14.639Z,0.00
2018-06-25T00:13:14.597Z,0.00
2018-06-25T00:14:14.579Z,0.00
2018-06-25T00:15:14.562Z,0.00
2018-06-25T00:16:14.547Z,0.00
2018-06-25T00:17:14.527Z,0.00
2018-06-25T00:18:14.523Z,0.00
2018-06-25T00:19:14.493Z,0.00
2018-06-25T00:20:14.475Z,0.00
2018-06-25T00:21:14.461Z,0.00
2018-06-25T00:22:14.440Z,0.00
2018-06-25T00:23:14.441Z,0.00
2018-06-25T00:24:14.406Z,0.00
2018-06-25T00:25:14.387Z,0.00
2018-06-25T00:26:14.374Z,0.00
2018-06-25T00:27:14.354Z,0.00
2018-06-25T00:28:14.337Z,0.00
2018-06-25T00:29:14.331Z,0.00
2018-06-25T00:30:14.300Z,0.00
2018-06-25T00:31:14.287Z,0.00
2018-06-25T00:32:14.267Z,0.00
2018-06-25T00:33:14.249Z,0.00
2018-06-25T00:34:14.261Z,0.00
2018-06-25T00:35:14.209Z,0.00
2018-06-25T00:36:14.198Z,0.00
2018-06-25T00:37:14.179Z,0.00
2018-06-25T00:38:14.162Z,0.00
2018-06-25T00:39:14.147Z,0.00
2018-06-25T00:40:14.140Z,0.00
2018-06-25T00:41:14.110Z,0.00
2018-06-25T00:42:14.094Z,0.00
2018-06-25T00:43:14.078Z,0.00
2018-06-25T00:44:14.059Z,0.00
2018-06-25T00:45:14.053Z,0.00
2018-06-25T00:46:14.024Z,0.00
2018-06-25T00:47:14.004Z,0.00
2018-06-25T00:48:13.988Z,0.00
2018-06-25T00:49:13.971Z,0.00
2018-06-25T00:50:13.976Z,0.00
2018-06-25T00:51:13.936Z,0.00
2018-06-25T00:52:13.919Z,0.00
2018-06-25T00:53:13.901Z,0.00
2018-06-25T00:54:13.884Z,0.00
2018-06-25T00:55:13.867Z,0.00
2018-06-25T00:56:13.861Z,0.00
2018-06-25T00:57:13.834Z,0.00
2018-06-25T00:58:13.815Z,0.00
2018-06-25T00:59:13.799Z,0.00
2018-06-25T01:00:13.782Z,0.00
2018-06-25T01:01:13.778Z,0.00
2018-06-25T01:02:13.746Z,0.00
2018-06-25T01:03:13.727Z,0.00
2018-06-25T01:04:13.710Z,0.00
2018-06-25T01:05:13.693Z,0.00
2018-06-25T01:06:13.675Z,0.00
2018-06-25T01:07:13.669Z,0.00
2018-06-25T01:08:13.641Z,0.00
2018-06-25T01:09:13.622Z,0.00
2018-06-25T01:10:13.607Z,0.00
2018-06-25T01:11:13.588Z,0.00
2018-06-25T01:12:13.589Z,0.00
2018-06-25T01:13:13.553Z,0.00
2018-06-25T01:14:13.537Z,0.00
2018-06-25T01:15:13.519Z,0.00
2018-06-25T01:16:13.502Z,0.00
2018-06-25T01:17:13.483Z,0.00
2018-06-25T01:18:13.479Z,0.00
2018-06-25T01:19:13.448Z,0.00
2018-06-25T01:20:13.432Z,0.00
2018-06-25T01:21:13.414Z,0.00
2018-06-25T01:22:13.397Z,0.00
2018-06-25T01:23:13.392Z,0.00
2018-06-25T01:24:13.362Z,0.00
2018-06-25T01:25:13.342Z,0.00
2018-06-25T01:26:13.329Z,0.00
2018-06-25T01:27:13.309Z,0.00
2018-06-25T01:28:13.308Z,0.00
2018-06-25T01:29:13.276Z,0.00
2018-06-25T01:30:13.258Z,0.00
2018-06-25T01:31:13.239Z,0.00
2018-06-25T01:32:13.222Z,0.00
2018-06-25T01:33:13.204Z,0.00
2018-06-25T01:34:13.199Z,0.00
2018-06-25T01:35:13.169Z,0.00
2018-06-25T01:36:13.151Z,0.00
2018-06-25T01:37:13.133Z,0.00
2018-06-25T01:38:13.116Z,0.00
2018-06-25T01:39:13.125Z,0.00
2018-06-25T01:40:13.083Z,0.00
2018-06-25T01:41:13.064Z,0.00
2018-06-25T01:42:13.052Z,0.00
2018-06-25T01:43:13.029Z,0.00
2018-06-25T01:44:13.014Z,0.00
2018-06-25T01:45:13.005Z,0.00
2018-06-25T01:46:12.977Z,0.00
2018-06-25T01:47:12.959Z,0.00
2018-06-25T01:48:12.943Z,0.00
2018-06-25T01:49:12.925Z,0.00
2018-06-25T01:50:12.918Z,0.00
2018-06-25T01:51:12.889Z,0.00
2018-06-25T01:52:12.873Z,0.00
2018-06-25T01:53:12.853Z,0.00
2018-06-25T01:54:12.838Z,0.00
2018-06-25T01:55:12.843Z,0.00
2018-06-25T01:56:12.802Z,0.00
2018-06-25T01:57:12.787Z,0.00
2018-06-25T01:58:12.765Z,0.00
2018-06-25T01:59:12.749Z,0.00
2018-06-25T02:00:12.732Z,0.00
2018-06-25T02:01:12.731Z,0.00
2018-06-25T02:02:12.697Z,0.00
2018-06-25T02:03:12.680Z,0.00
2018-06-25T02:04:12.662Z,0.00
2018-06-25T02:05:12.644Z,0.00
2018-06-25T02:06:12.626Z,0.00
2018-06-25T02:07:12.620Z,0.00
2018-06-25T02:08:12.592Z,0.00
2018-06-25T02:09:12.573Z,0.00
2018-06-25T02:10:12.556Z,0.00
2018-06-25T02:11:12.539Z,0.00
2018-06-25T02:12:12.532Z,0.00
2018-06-25T02:13:12.503Z,0.00
2018-06-25T02:14:12.486Z,0.00
2018-06-25T02:15:12.469Z,0.00
2018-06-25T02:16:12.452Z,0.00
2018-06-25T02:17:12.449Z,0.00
2018-06-25T02:18:12.418Z,0.00
2018-06-25T02:19:12.399Z,0.00
2018-06-25T02:20:12.381Z,0.00
2018-06-25T02:21:12.364Z,0.00
2018-06-25T02:22:12.346Z,0.00
2018-06-25T02:23:12.340Z,0.00
2018-06-25T02:24:12.313Z,0.00
2018-06-25T02:25:12.293Z,0.00
2018-06-25T02:26:12.276Z,0.00
2018-06-25T02:27:12.258Z,0.00
2018-06-25T02:28:12.267Z,0.00
2018-06-25T02:29:12.223Z,0.00
2018-06-25T02:30:12.206Z,0.00
2018-06-25T02:31:12.189Z,0.00
2018-06-25T02:32:12.173Z,0.00
2018-06-25T02:33:12.155Z,0.00
2018-06-25T02:34:12.146Z,0.00
2018-06-25T02:35:12.118Z,0.00
2018-06-25T02:36:12.102Z,0.00
2018-06-25T02:37:12.084Z,0.00
2018-06-25T02:38:12.066Z,0.00
2018-06-25T02:39:12.060Z,0.00
2018-06-25T02:40:12.033Z,0.00
2018-06-25T02:41:12.013Z,0.00
2018-06-25T02:42:11.998Z,4.00
2018-06-25T02:43:11.980Z,4.00
2018-06-25T02:44:11.984Z,0.00
2018-06-25T02:45:11.945Z,4.00
2018-06-25T02:46:11.927Z,4.00
2018-06-25T02:47:11.913Z,4.00
2018-06-25T02:48:11.891Z,4.00
2018-06-25T02:49:11.872Z,4.00
2018-06-25T02:50:11.866Z,4.00
2018-06-25T02:51:11.837Z,4.00
2018-06-25T02:52:11.822Z,4.00
2018-06-25T02:53:11.804Z,4.00
2018-06-25T02:54:11.786Z,8.00
2018-06-25T02:55:11.789Z,8.00
2018-06-25T02:56:11.753Z,8.00
2018-06-25T02:57:11.733Z,8.00
2018-06-25T02:58:11.716Z,12.00
2018-06-25T02:59:11.761Z,8.00
2018-06-25T03:00:11.681Z,16.00
2018-06-25T03:01:11.674Z,20.00
2018-06-25T03:02:11.646Z,24.00
2018-06-25T09:21:19.205Z,20608.00
2018-06-25T09:22:19.167Z,19392.00
2018-06-25T09:23:19.147Z,18048.00
2018-06-25T09:24:19.134Z,19712.00
2018-06-25T09:25:19.112Z,20512.00
2018-06-25T09:26:19.097Z,19904.00
2018-06-25T09:27:19.099Z,18496.00
2018-06-25T09:28:19.064Z,19360.00
2018-06-25T09:29:19.048Z,19424.00
2018-06-25T09:30:19.033Z,19616.00
2018-06-25T09:31:19.020Z,19680.00
2018-06-25T09:32:19.002Z,19296.00
2018-06-25T09:33:19.003Z,18848.00
2018-06-25T09:34:18.972Z,16704.00
2018-06-25T09:35:18.984Z,13728.00
2018-06-25T09:36:18.944Z,11952.00
2018-06-25T09:37:18.930Z,10916.00
2018-06-25T09:38:18.915Z,9708.00
2018-06-25T09:39:18.923Z,8588.00
2018-06-25T09:40:18.886Z,9104.00
2018-06-25T09:41:18.950Z,11780.00
2018-06-25T09:42:18.858Z,15108.00
2018-06-25T09:43:18.843Z,14412.00
2018-06-25T09:44:18.830Z,15244.00
2018-06-25T09:45:18.837Z,16928.00
2018-06-25T09:46:18.809Z,17568.00
2018-06-25T09:47:18.787Z,17120.00
2018-06-25T09:48:18.777Z,17408.00
2018-06-25T09:49:18.758Z,16388.00
2018-06-25T09:50:18.743Z,15876.00
2018-06-25T09:51:18.747Z,15392.00
2018-06-25T09:52:18.716Z,14240.00
2018-06-25T09:53:18.701Z,13836.00
2018-06-25T09:54:18.687Z,13216.00
2018-06-25T09:55:18.676Z,13040.00
2018-06-25T09:56:18.660Z,12576.00
2018-06-25T09:57:18.667Z,11820.00
2018-06-25T09:58:18.630Z,12548.00
2018-06-25T09:59:18.617Z,12596.00
2018-06-25T10:00:18.603Z,11920.00
2018-06-25T10:01:18.591Z,10368.00
2018-06-25T10:02:18.576Z,10688.00
2018-06-25T10:03:18.579Z,11564.00
2018-06-25T10:04:18.551Z,11928.00
2018-06-25T10:05:18.533Z,10760.00
2018-06-25T10:06:18.519Z,9732.00
2018-06-25T10:07:18.506Z,9120.00
2018-06-25T10:08:18.491Z,9048.00
2018-06-25T10:09:18.498Z,9416.00
2018-06-25T10:10:18.464Z,10664.00
2018-06-25T10:11:18.447Z,12896.00
2018-06-25T10:12:18.434Z,14904.00
2018-06-25T10:13:18.419Z,14628.00
2018-06-25T10:14:18.404Z,14064.00
2018-06-25T10:15:18.413Z,14360.00
2018-06-25T10:16:18.375Z,14332.00
2018-06-25T10:17:18.362Z,15472.00
2018-06-25T10:18:18.351Z,17760.00
2018-06-25T10:19:18.336Z,18528.00
2018-06-25T10:20:18.320Z,19200.00
2018-06-25T10:21:18.338Z,20384.00
2018-06-25T10:22:18.289Z,20224.00
2018-06-25T10:23:18.276Z,19488.00
2018-06-25T10:24:18.262Z,18560.00
2018-06-25T10:25:18.247Z,17312.00
2018-06-25T10:26:18.234Z,16640.00
2018-06-25T10:27:18.236Z,16736.00
2018-06-25T10:28:18.207Z,17376.00
2018-06-25T10:29:18.191Z,18112.00
2018-06-25T10:30:18.178Z,18240.00
2018-06-25T10:31:18.163Z,17408.00
2018-06-25T10:32:18.151Z,16188.00
2018-06-25T10:33:18.161Z,15340.00
2018-06-25T10:34:18.122Z,14796.00
2018-06-25T10:35:18.120Z,13776.00
2018-06-25T10:36:18.095Z,12568.00
2018-06-25T10:37:18.083Z,11568.00
2018-06-25T10:38:18.068Z,10448.00
2018-06-25T10:39:18.071Z,8764.00
2018-06-25T10:40:18.041Z,7500.00
2018-06-25T10:41:18.026Z,6692.00
2018-06-25T10:42:18.072Z,5452.00
2018-06-25T10:43:18.001Z,4848.00
2018-06-25T10:44:17.986Z,4720.00
2018-06-25T10:45:17.987Z,4524.00
2018-06-25T10:46:17.958Z,4448.00
2018-06-25T10:47:17.943Z,4624.00
2018-06-25T10:48:17.930Z,4852.00
2018-06-25T10:49:17.915Z,5040.00
2018-06-25T10:50:17.903Z,5300.00
2018-06-25T10:51:17.912Z,5568.00
2018-06-25T10:52:17.876Z,5996.00
2018-06-25T10:53:17.858Z,6540.00
2018-06-25T10:54:17.845Z,6948.00
2018-06-25T10:55:17.830Z,7444.00
2018-06-25T10:56:17.816Z,8252.00
2018-06-25T10:57:17.818Z,9272.00
2018-06-25T10:58:17.787Z,10280.00
2018-06-25T10:59:17.772Z,11196.00
2018-06-25T11:00:17.988Z,12216.00
2018-06-25T11:01:17.787Z,13228.00
2018-06-25T11:02:17.730Z,14600.00
2018-06-25T11:03:17.733Z,15676.00
2018-06-25T11:04:17.702Z,16800.00
2018-06-25T11:05:17.687Z,17920.00
2018-06-25T11:06:17.672Z,18816.00
2018-06-25T11:07:17.761Z,19200.00
2018-06-25T11:08:17.644Z,19936.00
2018-06-25T11:09:17.651Z,20512.00
2018-06-25T11:10:17.616Z,20064.00
2018-06-25T11:11:17.605Z,19616.00
2018-06-25T11:12:17.589Z,19488.00
2018-06-25T11:13:17.574Z,19360.00
2018-06-25T11:14:17.562Z,19840.00
2018-06-25T11:15:17.568Z,21184.00
2018-06-25T11:16:17.537Z,22944.00
2018-06-25T11:17:17.521Z,24096.00
2018-06-25T11:18:17.505Z,23392.00
2018-06-25T11:19:17.492Z,22112.00
2018-06-25T11:20:17.479Z,21824.00
2018-06-25T11:21:17.482Z,23744.00
2018-06-25T11:22:17.455Z,26528.00
2018-06-25T11:23:17.439Z,26816.00
2018-06-25T11:24:17.428Z,22496.00
2018-06-25T11:25:17.413Z,16608.00
2018-06-25T11:26:17.401Z,13440.00
2018-06-25T11:27:17.478Z,12456.00
2018-06-25T11:28:17.377Z,12816.00
2018-06-25T11:29:17.367Z,14036.00
2018-06-25T11:30:17.351Z,15696.00
2018-06-25T11:31:17.339Z,17536.00
2018-06-25T11:32:17.328Z,17216.00
2018-06-25T11:33:17.329Z,15268.00
2018-06-25T11:34:17.302Z,14456.00
2018-06-25T11:35:17.288Z,15292.00
2018-06-25T11:36:17.278Z,17056.00
2018-06-25T11:37:17.263Z,18144.00
2018-06-25T11:38:17.251Z,18528.00
2018-06-25T11:39:17.253Z,19392.00
2018-06-25T11:40:17.226Z,20160.00
2018-06-25T11:41:17.212Z,20512.00
2018-06-25T11:42:17.201Z,21184.00
2018-06-25T11:43:17.188Z,21440.00
2018-06-25T11:44:17.174Z,21568.00
2018-06-25T11:45:17.183Z,21984.00
2018-06-25T11:46:17.149Z,21920.00
2018-06-25T11:47:17.139Z,20896.00
2018-06-25T11:48:17.130Z,20224.00
2018-06-25T11:49:17.113Z,19808.00
2018-06-25T11:50:17.100Z,18880.00
2018-06-25T11:51:17.109Z,16800.00
2018-06-25T11:52:17.077Z,15240.00
2018-06-25T11:53:17.064Z,13864.00
2018-06-25T11:54:17.051Z,13252.00
2018-06-25T11:55:17.043Z,13608.00
2018-06-25T11:56:17.077Z,13380.00
2018-06-25T11:57:17.031Z,13152.00
2018-06-25T11:58:17.002Z,12700.00
2018-06-25T11:59:16.989Z,12292.00
2018-06-25T12:00:16.979Z,11788.00
2018-06-25T12:01:16.967Z,11116.00
2018-06-25T12:02:16.955Z,10808.00
2018-06-25T12:03:17.220Z,10824.00
2018-06-25T12:04:16.928Z,11672.00
2018-06-25T12:05:16.915Z,12012.00
2018-06-25T12:06:16.900Z,11604.00
2018-06-25T12:07:16.890Z,11020.00
2018-06-25T12:08:16.877Z,12448.00
2018-06-25T12:09:16.881Z,14104.00
2018-06-25T12:10:16.850Z,13980.00
2018-06-25T12:11:16.837Z,13736.00
2018-06-25T12:12:16.882Z,13280.00
2018-06-25T12:13:16.813Z,11796.00
2018-06-25T12:14:16.825Z,11116.00
2018-06-25T12:15:16.804Z,11892.00
2018-06-25T12:16:16.772Z,12164.00
2018-06-25T12:17:16.760Z,11616.00
2018-06-25T12:18:16.744Z,11600.00
2018-06-25T12:19:16.734Z,11776.00
2018-06-25T12:20:16.721Z,12184.00
2018-06-25T12:21:16.727Z,11812.00
2018-06-25T12:22:16.693Z,11236.00
2018-06-25T12:23:16.678Z,11112.00
2018-06-25T12:24:16.666Z,11288.00
2018-06-25T12:25:16.652Z,11436.00
2018-06-25T12:26:16.639Z,11384.00
2018-06-25T12:27:16.642Z,10940.00
2018-06-25T12:28:16.612Z,9776.00
2018-06-25T12:29:16.599Z,8756.00
2018-06-25T12:30:16.588Z,8132.00
2018-06-25T12:31:16.580Z,7904.00
2018-06-25T12:32:16.568Z,7976.00
2018-06-25T12:33:16.561Z,7876.00
2018-06-25T12:34:16.531Z,7460.00
2018-06-25T12:35:16.518Z,7224.00
2018-06-25T12:36:16.503Z,7520.00
2018-06-25T12:37:16.490Z,7596.00
2018-06-25T12:38:16.476Z,7268.00
2018-06-25T12:39:16.486Z,6928.00
2018-06-25T12:40:16.448Z,7000.00
2018-06-25T12:41:16.434Z,7844.00
2018-06-25T12:42:16.420Z,8472.00
2018-06-25T12:43:16.418Z,8616.00
2018-06-25T12:44:16.396Z,8692.00
2018-06-25T12:45:16.397Z,8960.00
2018-06-25T12:46:16.365Z,9324.00
2018-06-25T12:47:16.351Z,10016.00
2018-06-25T12:48:16.383Z,11028.00
2018-06-25T12:49:16.322Z,11880.00
2018-06-25T12:50:16.310Z,12644.00
2018-06-25T12:51:16.312Z,12996.00
2018-06-25T12:52:16.282Z,13384.00
2018-06-25T12:53:16.266Z,14292.00
2018-06-25T12:54:16.254Z,15500.00
2018-06-25T12:55:16.238Z,16392.00
2018-06-25T12:56:16.227Z,17696.00
2018-06-25T12:57:16.234Z,18656.00
2018-06-25T12:58:16.204Z,20256.00
2018-06-25T12:59:16.184Z,21280.00
2018-06-25T13:00:16.170Z,20800.00
2018-06-25T13:01:16.156Z,20032.00
2018-06-25T13:02:16.143Z,20992.00
2018-06-25T13:03:16.146Z,22720.00
2018-06-25T13:04:16.116Z,23264.00
2018-06-25T13:05:16.104Z,23104.00
2018-06-25T13:06:16.089Z,22528.00
2018-06-25T13:07:16.076Z,24256.00
2018-06-25T13:08:16.063Z,25312.00
2018-06-25T13:09:16.066Z,25760.00
2018-06-25T13:10:16.039Z,23840.00
2018-06-25T13:11:16.027Z,23232.00
2018-06-25T13:12:16.011Z,20672.00
2018-06-25T13:13:15.996Z,16256.00
2018-06-25T13:14:15.983Z,13404.00
2018-06-25T13:15:15.993Z,12752.00
2018-06-25T13:16:15.958Z,12812.00
2018-06-25T13:17:15.945Z,12824.00
2018-06-25T13:18:15.994Z,13700.00
2018-06-25T13:19:15.919Z,14948.00
2018-06-25T13:20:15.907Z,16156.00
2018-06-25T13:21:15.909Z,16960.00
2018-06-25T13:22:15.880Z,17440.00
2018-06-25T13:23:15.868Z,17888.00
2018-06-25T13:24:15.854Z,18176.00
2018-06-25T13:25:15.841Z,18432.00
2018-06-25T13:26:15.828Z,18592.00
2018-06-25T13:27:15.831Z,18624.00
2018-06-25T13:28:15.803Z,18656.00
2018-06-25T13:29:15.790Z,18528.00
2018-06-25T13:30:15.777Z,18624.00
2018-06-25T13:31:15.858Z,18432.00
2018-06-25T13:32:15.754Z,17280.00
2018-06-25T13:33:15.755Z,15724.00
2018-06-25T13:34:15.724Z,14176.00
2018-06-25T13:35:15.713Z,13368.00
2018-06-25T13:36:15.700Z,13728.00
2018-06-25T13:37:15.686Z,14168.00
2018-06-25T13:38:15.728Z,14240.00
2018-06-25T13:39:15.678Z,14272.00
2018-06-25T13:40:15.651Z,13932.00
2018-06-25T13:41:15.635Z,13744.00
2018-06-25T13:42:15.625Z,13528.00
2018-06-25T13:43:15.610Z,13332.00
2018-06-25T13:44:15.598Z,13300.00
2018-06-25T13:45:15.601Z,13416.00
2018-06-25T13:46:15.571Z,13676.00
2018-06-25T13:47:15.558Z,14124.00
2018-06-25T13:48:15.605Z,14648.00
2018-06-25T13:49:15.533Z,15128.00
2018-06-25T13:50:15.520Z,15724.00
2018-06-25T13:51:15.527Z,16480.00
2018-06-25T13:52:15.493Z,16992.00
2018-06-25T13:53:15.481Z,17216.00
2018-06-25T13:54:15.467Z,17056.00
2018-06-25T13:55:15.456Z,16960.00
2018-06-25T13:56:15.442Z,16992.00
2018-06-25T13:57:15.457Z,17152.00
2018-06-25T13:58:15.415Z,17568.00
2018-06-25T13:59:15.401Z,17856.00
2018-06-25T14:00:15.393Z,17984.00
2018-06-25T14:01:15.378Z,17920.00
2018-06-25T14:02:15.362Z,17568.00
2018-06-25T14:03:15.369Z,17152.00
2018-06-25T14:04:15.340Z,16768.00
2018-06-25T14:05:15.327Z,16480.00
2018-06-25T14:06:15.315Z,16048.00
2018-06-25T14:07:15.303Z,15608.00
2018-06-25T14:08:15.291Z,15260.00
2018-06-25T14:09:15.299Z,14972.00
2018-06-25T14:10:15.264Z,14792.00
2018-06-25T14:11:15.252Z,14716.00
2018-06-25T14:12:15.240Z,14716.00
2018-06-25T14:13:15.227Z,14804.00
2018-06-25T14:14:15.214Z,15172.00
2018-06-25T14:15:15.224Z,15500.00
2018-06-25T14:16:15.215Z,15884.00
2018-06-25T14:17:15.177Z,16256.00
2018-06-25T14:18:15.168Z,16608.00
2018-06-25T14:19:15.152Z,16992.00
2018-06-25T14:20:15.140Z,17504.00
2018-06-25T14:21:15.143Z,17824.00
2018-06-25T14:22:15.114Z,18176.00
2018-06-25T14:23:15.102Z,18944.00
2018-06-25T14:24:15.092Z,20192.00
2018-06-25T14:25:15.076Z,21504.00
2018-06-25T14:26:15.065Z,22368.00
2018-06-25T14:27:15.075Z,22176.00
2018-06-25T14:28:15.109Z,21568.00
2018-06-25T14:29:15.028Z,21504.00
2018-06-25T14:30:15.017Z,22560.00
2018-06-25T14:31:15.005Z,24416.00
2018-06-25T14:32:14.996Z,27936.00
2018-06-25T14:33:14.997Z,32768.00
2018-06-25T14:34:14.966Z,36896.00
2018-06-25T14:35:14.965Z,39456.00
2018-06-25T14:36:14.945Z,39232.00
2018-06-25T14:37:14.935Z,38528.00
2018-06-25T14:38:14.921Z,51360.00
2018-06-25T14:39:14.926Z,46816.00
2018-06-25T14:40:14.958Z,50240.00
2018-06-25T14:41:14.885Z,54304.00
2018-06-25T14:42:14.873Z,44768.00
2018-06-25T14:43:14.871Z,48896.00
2018-06-25T14:44:14.853Z,65984.00
2018-06-25T14:45:14.882Z,70496.00
2018-06-25T14:46:14.829Z,81216.00
2018-06-25T14:47:14.820Z,71776.00
2018-06-25T14:48:14.841Z,84832.00
2018-06-25T14:49:14.801Z,70784.00
2018-06-25T14:50:14.789Z,69248.00
2018-06-25T14:51:14.796Z,32192.00
2018-06-25T14:52:14.780Z,31264.00
2018-06-25T14:53:14.764Z,31584.00
2018-06-25T14:54:14.752Z,65600.00
2018-06-25T14:55:14.743Z,75840.00
2018-06-25T14:56:14.736Z,80384.00
2018-06-25T14:57:14.739Z,49856.00
2018-06-25T14:58:14.714Z,32864.00
2018-06-25T14:59:14.766Z,50176.00
2018-06-25T15:00:14.697Z,46016.00
2018-06-25T15:01:14.687Z,35328.00
2018-06-25T15:02:14.679Z,44064.00
2018-06-25T15:03:14.693Z,40480.00
2018-06-25T15:04:14.667Z,62176.00
2018-06-25T15:05:14.654Z,82144.00
2018-06-25T15:06:14.645Z,81248.00
2018-06-25T15:07:14.636Z,33632.00
2018-06-25T15:08:14.630Z,80128.00
2018-06-25T15:09:14.636Z,80832.00
2018-06-25T15:10:14.609Z,85056.00
2018-06-25T15:11:14.605Z,82752.00
2018-06-25T15:12:14.594Z,69312.00
2018-06-25T15:13:14.643Z,79392.00
2018-06-25T15:14:14.578Z,72800.00
2018-06-25T15:15:14.589Z,80896.00
2018-06-25T15:16:14.569Z,45600.00
2018-06-25T15:17:14.556Z,79808.00
2018-06-25T15:18:14.548Z,45152.00
2018-06-25T15:19:14.542Z,82688.00
2018-06-25T15:20:14.537Z,84352.00
2018-06-25T15:21:14.549Z,27904.00
2018-06-25T15:22:14.526Z,26688.00
2018-06-25T15:23:14.514Z,24832.00
2018-06-25T15:24:14.507Z,24800.00
2018-06-25T15:25:14.500Z,28384.00
2018-06-25T15:26:14.490Z,29536.00
2018-06-25T15:27:14.505Z,80768.00
2018-06-25T15:28:14.477Z,59904.00
2018-06-25T15:29:14.474Z,33312.00
2018-06-25T15:30:14.465Z,15012.00
2018-06-25T15:31:14.457Z,11992.00
2018-06-25T15:32:14.462Z,10600.00
2018-06-25T15:33:14.457Z,9840.00
2018-06-25T15:34:14.440Z,9300.00
2018-06-25T15:35:14.424Z,8796.00
2018-06-25T15:36:14.416Z,8316.00
2018-06-25T15:37:14.407Z,8024.00
2018-06-25T15:38:14.399Z,7620.00
2018-06-25T15:39:14.405Z,7240.00
2018-06-25T15:40:14.382Z,6696.00
2018-06-25T15:41:14.374Z,6216.00
2018-06-25T15:42:14.364Z,6064.00
2018-06-25T15:43:14.354Z,6336.00
2018-06-25T15:44:14.345Z,7144.00
2018-06-25T15:45:14.350Z,8416.00
2018-06-25T15:46:14.328Z,10060.00
2018-06-25T15:47:14.315Z,12136.00
2018-06-25T15:48:14.307Z,14856.00
2018-06-25T15:49:14.295Z,18144.00
2018-06-25T15:50:14.283Z,25312.00
2018-06-25T15:51:14.296Z,49088.00
2018-06-25T15:52:14.263Z,67520.00
2018-06-25T15:53:14.252Z,69248.00
2018-06-25T15:54:14.242Z,68992.00
2018-06-25T15:55:14.232Z,66592.00
2018-06-25T15:56:14.221Z,35680.00
2018-06-25T15:57:14.234Z,23552.00
2018-06-25T15:58:14.202Z,22304.00
2018-06-25T15:59:14.193Z,23040.00
2018-06-25T16:00:14.183Z,26784.00
2018-06-25T16:01:14.174Z,31584.00
2018-06-25T16:02:14.164Z,70336.00
2018-06-25T16:03:14.172Z,76544.00
2018-06-25T16:04:14.146Z,74720.00
2018-06-25T16:05:14.135Z,67040.00
2018-06-25T16:06:14.127Z,20768.00
2018-06-25T16:07:14.119Z,16800.00
2018-06-25T16:08:14.110Z,15016.00
2018-06-25T16:09:14.116Z,14032.00
2018-06-25T16:10:14.157Z,12968.00
2018-06-25T16:11:14.084Z,12072.00
2018-06-25T16:12:14.077Z,11700.00
2018-06-25T16:13:14.065Z,11816.00
2018-06-25T16:14:14.115Z,12652.00
2018-06-25T16:15:14.070Z,18944.00
2018-06-25T16:16:14.038Z,14520.00
2018-06-25T16:17:14.029Z,12648.00
2018-06-25T16:18:14.021Z,11716.00
2018-06-25T16:19:14.013Z,10840.00
2018-06-25T16:20:14.002Z,10468.00
2018-06-25T16:21:14.008Z,10116.00
2018-06-25T16:22:13.980Z,9972.00
2018-06-25T16:23:13.971Z,9004.00
2018-06-25T16:24:13.961Z,8400.00
2018-06-25T16:25:13.950Z,8428.00
2018-06-25T16:26:13.940Z,9224.00
2018-06-25T16:27:13.947Z,10500.00
2018-06-25T16:28:13.923Z,11916.00
2018-06-25T16:29:13.908Z,13956.00
2018-06-25T16:30:13.899Z,19936.00
2018-06-25T16:31:13.891Z,21408.00
2018-06-25T16:32:13.878Z,19456.00
2018-06-25T16:33:13.891Z,22848.00
2018-06-25T16:34:13.922Z,22080.00
2018-06-25T16:35:13.848Z,17248.00
2018-06-25T16:36:13.836Z,17760.00
2018-06-25T16:37:13.824Z,17696.00
2018-06-25T16:38:13.812Z,17568.00
2018-06-25T16:39:13.826Z,17376.00
2018-06-25T16:40:13.792Z,17056.00
2018-06-25T16:41:13.781Z,17472.00
2018-06-25T16:42:13.771Z,16612.00
2018-06-25T16:43:13.763Z,17568.00
2018-06-25T16:44:13.751Z,17952.00
2018-06-25T16:45:13.754Z,50240.00
2018-06-25T16:46:13.727Z,31008.00
2018-06-25T16:47:13.718Z,14328.00
2018-06-25T16:48:13.710Z,11900.00
2018-06-25T16:49:13.696Z,10704.00
2018-06-25T16:50:13.690Z,9820.00
2018-06-25T16:51:13.696Z,8700.00
2018-06-25T16:52:13.667Z,7976.00
2018-06-25T16:53:13.653Z,7728.00
2018-06-25T16:54:13.641Z,7356.00
2018-06-25T16:55:13.633Z,6900.00
2018-06-25T16:56:13.622Z,6688.00
2018-06-25T16:57:13.627Z,6724.00
2018-06-25T16:58:13.598Z,6916.00
2018-06-25T16:59:13.587Z,7140.00
2018-06-25T17:00:13.577Z,7368.00
2018-06-25T17:01:13.563Z,7220.00
2018-06-25T17:02:13.554Z,6992.00
2018-06-25T17:03:13.559Z,6892.00
2018-06-25T17:04:13.531Z,7348.00
2018-06-25T17:05:13.518Z,7980.00
2018-06-25T17:06:13.506Z,8292.00
2018-06-25T17:07:13.495Z,7988.00
2018-06-25T17:08:13.484Z,8168.00
2018-06-25T17:09:13.511Z,8416.00
2018-06-25T17:10:13.460Z,8148.00
2018-06-25T17:11:13.456Z,7828.00
2018-06-25T17:12:13.436Z,7484.00
2018-06-25T17:13:13.424Z,6876.00
2018-06-25T17:14:13.412Z,6164.00
2018-06-25T17:15:13.419Z,5572.00
2018-06-25T17:16:13.388Z,5120.00
2018-06-25T17:17:13.374Z,4756.00
2018-06-25T17:18:13.363Z,4584.00
2018-06-25T17:19:13.351Z,4676.00
2018-06-25T17:20:13.339Z,5052.00
2018-06-25T17:21:13.344Z,5656.00
2018-06-25T17:22:13.315Z,6532.00
2018-06-25T17:23:13.305Z,7476.00
2018-06-25T17:24:13.289Z,8420.00
2018-06-25T17:25:13.277Z,9404.00
2018-06-25T17:26:13.268Z,10020.00
2018-06-25T17:27:13.273Z,10456.00
2018-06-25T17:28:13.240Z,10568.00
2018-06-25T17:29:13.227Z,10336.00
2018-06-25T17:30:13.215Z,9604.00
2018-06-25T17:31:13.203Z,8792.00
2018-06-25T17:32:13.191Z,8384.00
2018-06-25T17:33:13.196Z,8184.00
2018-06-25T17:34:13.164Z,8380.00
2018-06-25T17:35:13.153Z,8832.00
2018-06-25T17:36:13.141Z,9332.00
2018-06-25T17:37:13.128Z,9740.00
2018-06-25T17:38:13.116Z,9652.00
2018-06-25T17:39:13.123Z,9048.00
2018-06-25T17:40:13.090Z,8172.00
2018-06-25T17:41:13.075Z,7416.00
2018-06-25T17:42:13.079Z,6808.00
2018-06-25T17:43:13.053Z,6500.00
2018-06-25T17:44:13.046Z,6524.00
2018-06-25T17:45:13.051Z,6336.00
2018-06-25T17:46:13.014Z,6176.00
2018-06-25T17:47:13.002Z,5760.00
2018-06-25T17:48:13.015Z,5472.00
2018-06-25T17:49:12.976Z,5384.00
2018-06-25T17:50:12.966Z,5712.00
2018-06-25T17:51:12.967Z,6256.00
2018-06-25T17:52:12.940Z,9620.00
2018-06-25T17:53:12.928Z,9072.00
2018-06-25T17:54:12.981Z,9300.00
2018-06-25T17:55:12.908Z,9516.00
2018-06-25T17:56:12.888Z,10020.00
2018-06-25T17:57:12.890Z,9244.00
2018-06-25T17:58:12.863Z,8524.00
2018-06-25T17:59:12.853Z,13344.00
2018-06-25T18:00:12.838Z,13184.00
2018-06-25T18:01:12.827Z,9176.00
2018-06-25T18:02:12.813Z,8664.00
2018-06-25T18:03:12.829Z,8572.00
2018-06-25T18:04:12.790Z,9040.00
2018-06-25T18:05:12.777Z,9072.00
2018-06-25T18:06:12.765Z,12616.00
2018-06-25T18:07:12.753Z,12412.00
2018-06-25T18:08:12.886Z,13052.00
2018-06-25T18:09:12.743Z,11228.00
2018-06-25T18:10:12.723Z,10732.00
2018-06-25T18:11:12.710Z,10884.00
2018-06-25T18:12:12.699Z,11048.00
2018-06-25T18:13:12.679Z,10732.00
2018-06-25T18:14:12.668Z,10432.00
2018-06-25T18:15:12.672Z,10004.00
2018-06-25T18:16:12.645Z,9508.00
2018-06-25T18:17:12.631Z,8964.00
2018-06-25T18:18:12.624Z,8564.00
2018-06-25T18:19:12.614Z,8300.00
2018-06-25T18:20:12.599Z,8056.00
2018-06-25T18:21:12.607Z,8132.00
2018-06-25T18:22:12.572Z,7632.00
2018-06-25T18:23:12.563Z,7412.00
2018-06-25T18:24:12.601Z,7124.00
2018-06-25T18:25:12.538Z,6588.00
2018-06-25T18:26:12.524Z,6108.00
2018-06-25T18:27:12.529Z,6036.00
2018-06-25T18:28:12.513Z,6156.00